createdAt,value
2019-05-06T09:06:56.497Z,5.37
2019-05-06T09:09:24.999Z,6.37
2019-05-06T09:11:53.710Z,6.63
2019-05-06T09:14:23.268Z,4.40
2019-05-06T09:16:53.877Z,4.67
2019-05-06T09:19:23.268Z,5.10
2019-05-06T09:21:53.363Z,49.53
2019-05-06T09:24:23.165Z,86.23
2019-05-06T09:26:56.282Z,82.90
2019-05-06T09:29:32.666Z,71.03
2019-05-06T09:32:03.004Z,5.20
2019-05-06T09:34:52.727Z,4.20
2019-05-06T09:37:23.959Z,4.87
2019-05-06T09:39:53.523Z,4.60
2019-05-06T09:42:22.994Z,30.53
2019-05-06T09:44:54.212Z,83.97
2019-05-06T09:47:29.448Z,99.70
2019-05-06T09:49:58.060Z,59.73
2019-05-06T09:52:26.569Z,84.77
2019-05-06T09:55:03.201Z,88.37
2019-05-06T09:57:36.604Z,86.70
2019-05-06T10:00:06.868Z,91.27
2019-05-06T10:02:35.277Z,64.27
2019-05-06T10:05:05.349Z,4.20
2019-05-06T10:07:34.861Z,5.00
2019-05-06T10:10:03.422Z,4.87
2019-05-06T10:12:32.891Z,4.97
2019-05-06T10:15:03.179Z,3.70
2019-05-06T10:17:31.957Z,2.97
2019-05-06T10:20:02.628Z,3.90
2019-05-06T10:22:32.479Z,4.43
2019-05-06T10:25:03.362Z,3.80
2019-05-06T10:27:31.133Z,4.73
2019-05-06T10:30:04.107Z,3.53
2019-05-06T10:32:34.329Z,3.10
2019-05-06T10:35:03.002Z,3.70
2019-05-06T10:37:34.801Z,4.07
2019-05-06T10:40:24.627Z,57.40
2019-05-06T10:43:22.114Z,64.03
2019-05-06T10:45:52.069Z,11.23
2019-05-06T10:48:22.480Z,13.07
2019-05-06T10:50:52.758Z,6.43
2019-05-06T10:53:23.273Z,17.27
2019-05-06T10:56:12.612Z,45.37
2019-05-06T10:58:43.748Z,13.67
2019-05-06T11:01:18.434Z,5.67
2019-05-06T11:03:47.104Z,5.77
2019-05-06T11:06:15.639Z,24.53
2019-05-06T11:08:45.438Z,61.43
2019-05-06T11:11:17.062Z,66.40
2019-05-06T11:13:44.230Z,34.80
2019-05-06T11:16:13.021Z,65.77
2019-05-06T11:18:42.617Z,93.67
2019-05-06T11:21:12.722Z,93.87
2019-05-06T11:23:41.888Z,91.13
2019-05-06T11:26:10.444Z,76.57
2019-05-06T11:28:42.660Z,77.90
2019-05-06T11:31:23.042Z,91.73
2019-05-06T11:34:05.378Z,80.30
2019-05-06T11:36:37.572Z,78.87
2019-05-06T11:39:07.606Z,54.27
2019-05-06T11:41:36.040Z,18.67
2019-05-06T11:44:04.571Z,41.10
2019-05-06T11:46:33.132Z,46.60
2019-05-06T11:49:01.651Z,40.50
2019-05-06T11:51:32.989Z,22.23
2019-05-06T11:54:02.876Z,4.83
2019-05-06T11:56:33.370Z,6.20
2019-05-06T11:59:02.413Z,7.47
2019-05-06T12:01:33.024Z,12.17
2019-05-06T12:04:02.602Z,6.83
2019-05-06T12:06:33.075Z,6.20
2019-05-06T12:09:06.351Z,6.03
2019-05-06T12:11:32.187Z,9.97
2019-05-06T12:14:02.562Z,6.23
2019-05-06T12:16:32.860Z,6.40
2019-05-06T12:19:02.836Z,7.17
2019-05-06T12:21:32.939Z,69.87
2019-05-06T12:24:02.882Z,86.70
2019-05-06T12:26:32.309Z,86.07
2019-05-06T12:29:02.227Z,87.23
2019-05-06T12:31:32.821Z,89.87
2019-05-06T12:34:02.699Z,89.00
2019-05-06T12:36:32.585Z,91.73
2019-05-06T12:39:19.626Z,90.70
2019-05-06T12:41:58.407Z,89.90
2019-05-06T12:44:27.228Z,93.13
2019-05-06T12:47:03.443Z,91.20
2019-05-06T12:49:32.702Z,4.67
2019-05-06T12:52:01.449Z,29.47
2019-05-06T12:54:30.104Z,56.50
2019-05-06T12:56:59.605Z,49.53
2019-05-06T12:59:28.225Z,39.93
2019-05-06T13:01:56.809Z,6.53
2019-05-06T13:04:46.387Z,7.27
2019-05-06T13:06:55.902Z,4.57
2019-05-06T13:09:24.547Z,4.60
2019-05-06T13:11:53.226Z,5.03
2019-05-06T13:14:22.417Z,7.43
2019-05-06T13:16:53.269Z,5.00
2019-05-06T13:19:22.819Z,5.00
2019-05-06T13:21:51.613Z,5.00
2019-05-06T13:24:20.189Z,16.37
2019-05-06T13:26:48.802Z,36.97
2019-05-06T13:29:19.044Z,71.90
2019-05-06T13:31:47.674Z,90.67
2019-05-06T13:34:17.530Z,93.80
2019-05-06T13:36:46.474Z,90.13
2019-05-06T13:39:15.518Z,91.03
2019-05-06T13:41:44.276Z,79.57
2019-05-06T13:44:14.529Z,77.13
2019-05-06T13:46:44.769Z,65.97
2019-05-06T13:49:23.557Z,75.70
2019-05-06T13:51:56.655Z,90.77
2019-05-06T13:54:25.274Z,93.33
2019-05-06T13:56:53.924Z,89.80
2019-05-06T13:59:22.562Z,83.73
2019-05-06T14:01:58.659Z,88.17
2019-05-06T14:04:27.392Z,88.77
2019-05-06T14:06:56.066Z,81.10
2019-05-06T14:09:32.493Z,61.80
2019-05-06T14:11:55.122Z,59.10
2019-05-06T14:14:23.657Z,61.97
2019-05-06T14:16:53.852Z,60.43
2019-05-06T14:19:23.007Z,70.57
2019-05-06T14:21:52.284Z,61.40
2019-05-06T14:24:22.253Z,22.40
2019-05-06T14:27:02.546Z,9.53
2019-05-06T14:29:38.782Z,51.43
2019-05-06T14:32:07.415Z,45.50
2019-05-06T14:34:35.984Z,50.83
2019-05-06T14:37:04.526Z,48.40
2019-05-06T14:39:48.607Z,53.90
2019-05-06T14:42:05.131Z,9.67
2019-05-06T14:44:33.703Z,3.80
2019-05-06T14:47:20.377Z,40.70
2019-05-06T14:49:49.151Z,48.33
2019-05-06T14:52:17.751Z,46.33
2019-05-06T14:54:53.060Z,67.00
2019-05-06T14:57:22.717Z,89.23
2019-05-06T14:59:55.257Z,84.83
2019-05-06T15:02:26.060Z,88.87
2019-05-06T15:04:54.051Z,89.97
2019-05-06T15:07:22.639Z,89.73
2019-05-06T15:10:02.544Z,78.33
2019-05-06T15:12:23.152Z,72.43
2019-05-06T15:14:52.746Z,69.57
2019-05-06T15:17:22.935Z,59.23
2019-05-06T15:19:52.700Z,78.33
2019-05-06T15:22:22.571Z,85.63
2019-05-06T15:24:53.565Z,78.83
2019-05-06T15:27:22.788Z,67.30
2019-05-06T15:29:55.129Z,68.87
2019-05-06T15:32:25.362Z,60.60
2019-05-06T15:35:04.600Z,41.87
2019-05-06T15:37:46.253Z,4.23
2019-05-06T15:40:14.955Z,30.23
2019-05-06T15:42:43.526Z,55.47
2019-05-06T15:45:12.646Z,78.67
2019-05-06T15:47:42.588Z,71.93
2019-05-06T15:50:12.764Z,69.87
2019-05-06T15:52:43.575Z,86.73
2019-05-06T15:55:12.144Z,82.90
2019-05-06T15:57:43.296Z,82.50
2019-05-06T16:00:13.017Z,59.53
2019-05-06T16:02:42.044Z,42.53
2019-05-06T16:05:18.869Z,43.77
2019-05-06T16:07:43.386Z,72.03
2019-05-06T16:10:13.303Z,71.37
2019-05-06T16:12:47.515Z,62.93
2019-05-06T16:15:16.187Z,75.23
2019-05-06T16:17:44.777Z,61.77
2019-05-06T16:20:13.411Z,52.60
2019-05-06T16:22:44.510Z,15.33
2019-05-06T16:25:14.883Z,3.30
2019-05-06T16:27:44.282Z,3.50
2019-05-06T16:30:14.125Z,3.40
2019-05-06T16:32:43.363Z,4.40
2019-05-06T16:35:14.252Z,3.47
2019-05-06T16:37:42.393Z,3.12
2019-05-06T16:40:12.381Z,4.12
2019-05-06T16:42:46.466Z,2.27
2019-05-06T16:45:18.773Z,2.20
2019-05-06T16:47:52.438Z,1.98
2019-05-06T16:50:22.726Z,2.45
2019-05-06T16:52:52.598Z,3.17
2019-05-06T16:55:24.309Z,3.73
2019-05-06T16:57:57.796Z,3.60
2019-05-06T17:00:28.070Z,12.37
2019-05-06T17:03:11.667Z,92.97
2019-05-06T17:05:58.529Z,93.50
2019-05-06T17:08:27.570Z,134.00
2019-05-06T17:10:56.295Z,90.50
2019-05-06T17:13:25.868Z,91.00
2019-05-06T17:15:54.514Z,89.37
2019-05-06T17:18:23.654Z,142.43
2019-05-06T17:20:58.052Z,105.33
2019-05-06T17:23:37.656Z,116.13
2019-05-06T17:26:13.134Z,107.30
2019-05-06T17:29:02.697Z,111.17
2019-05-06T17:31:47.591Z,87.83
2019-05-06T17:34:23.306Z,89.30
2019-05-06T17:36:53.694Z,87.53
2019-05-06T17:39:22.703Z,88.03
2019-05-06T17:41:52.259Z,87.23
2019-05-06T17:44:22.926Z,87.53
2019-05-06T17:46:55.741Z,87.93
2019-05-06T17:49:28.779Z,87.10
2019-05-06T17:52:02.984Z,86.73
2019-05-06T17:54:32.496Z,86.37
2019-05-06T17:57:03.802Z,79.00
2019-05-06T17:59:33.226Z,81.83
2019-05-06T18:04:46.541Z,109.10
2019-05-06T18:07:15.202Z,90.43
2019-05-06T18:09:43.917Z,84.20
2019-05-06T18:12:12.566Z,89.23
2019-05-06T18:14:43.562Z,82.23
2019-05-06T18:17:12.566Z,84.20
2019-05-06T18:19:41.472Z,84.87
2019-05-06T18:22:10.142Z,85.73
2019-05-06T18:24:38.882Z,86.93
2019-05-06T18:27:07.486Z,84.97
2019-05-06T18:29:36.228Z,83.63
2019-05-06T18:32:05.003Z,86.27
2019-05-06T18:34:33.611Z,85.43
2019-05-06T18:37:03.213Z,84.50
2019-05-06T18:39:33.791Z,89.40
2019-05-06T18:42:15.704Z,83.30
2019-05-06T18:44:33.581Z,84.60
2019-05-06T18:47:02.869Z,87.63
2019-05-06T18:49:33.599Z,85.83
2019-05-06T18:52:02.217Z,89.30
2019-05-06T18:54:35.022Z,90.07
2019-05-06T18:57:06.501Z,86.00
2019-05-06T18:59:36.898Z,67.50
2019-05-06T19:02:05.347Z,72.77
2019-05-06T19:04:42.761Z,71.23
2019-05-06T19:07:16.158Z,59.07
2019-05-06T19:09:58.775Z,78.37
2019-05-06T19:12:34.647Z,56.60
2019-05-06T19:14:58.860Z,68.83
2019-05-06T19:17:29.242Z,63.20
2019-05-06T19:19:58.535Z,70.63
2019-05-06T19:22:27.421Z,83.63
2019-05-06T19:24:57.233Z,87.87
2019-05-06T19:27:25.924Z,87.03
2019-05-06T19:29:54.799Z,88.30
2019-05-06T19:32:24.145Z,90.67
2019-05-06T19:34:53.587Z,12.80
2019-05-06T19:37:23.315Z,6.60
2019-05-06T19:39:54.088Z,6.10
2019-05-06T19:42:23.987Z,6.23
2019-05-06T19:44:53.666Z,6.53
2019-05-06T19:47:22.794Z,5.63
2019-05-06T19:49:53.220Z,6.43
2019-05-06T19:52:25.002Z,5.97
2019-05-06T19:54:54.346Z,4.70
2019-05-06T19:57:23.042Z,5.80
2019-05-06T19:59:52.215Z,5.90
2019-05-06T20:02:25.499Z,5.13
2019-05-06T20:04:56.863Z,4.67
2019-05-06T20:07:38.305Z,4.23
2019-05-06T20:10:08.847Z,5.00
2019-05-06T20:12:39.088Z,5.43
2019-05-06T20:15:26.562Z,6.23
2019-05-06T20:17:55.238Z,5.07
2019-05-06T20:20:23.889Z,5.57
2019-05-06T20:22:52.603Z,4.80
2019-05-06T20:25:22.045Z,6.47
2019-05-06T20:27:52.633Z,5.33
2019-05-06T20:30:21.933Z,4.80
2019-05-06T20:32:52.168Z,5.43
2019-05-06T20:35:22.387Z,6.37
2019-05-06T20:37:53.227Z,6.70
2019-05-06T20:40:23.042Z,6.27
2019-05-06T20:42:52.137Z,5.93
2019-05-06T20:45:22.396Z,5.40
2019-05-06T20:47:52.528Z,5.57
2019-05-06T20:50:22.578Z,6.63
2019-05-06T20:52:52.030Z,6.40
2019-05-06T20:55:22.940Z,5.80
2019-05-06T20:57:52.884Z,5.67
2019-05-06T21:00:22.512Z,6.70
2019-05-06T21:02:53.423Z,6.93
2019-05-06T21:05:22.831Z,6.97
2019-05-06T21:07:52.580Z,7.33
2019-05-06T21:10:22.093Z,7.13
2019-05-06T21:12:52.976Z,7.30
2019-05-06T21:15:22.956Z,7.00
2019-05-06T21:17:51.795Z,7.17
2019-05-06T21:20:20.333Z,8.13
2019-05-06T21:22:49.355Z,7.77
2019-05-06T21:25:18.148Z,7.00
2019-05-06T21:27:46.622Z,6.90
2019-05-06T21:30:15.198Z,6.67
2019-05-06T21:32:43.684Z,6.70
2019-05-06T21:35:12.617Z,6.73
2019-05-06T21:37:42.209Z,6.77
2019-05-06T21:40:12.269Z,6.27
2019-05-06T21:42:43.202Z,6.87
2019-05-06T21:45:12.570Z,6.63
2019-05-06T21:47:44.314Z,6.43
2019-05-06T21:50:12.090Z,6.03
2019-05-06T21:52:42.805Z,5.50
2019-05-06T21:55:12.933Z,5.07
2019-05-06T21:57:42.237Z,5.60
2019-05-06T22:00:16.626Z,5.67
2019-05-06T22:02:43.044Z,5.53
2019-05-06T22:05:13.366Z,5.53
2019-05-06T22:07:43.403Z,6.23
2019-05-06T22:10:11.995Z,5.93
2019-05-06T22:12:40.475Z,5.33
2019-05-06T22:15:09.115Z,6.10
2019-05-06T22:17:38.729Z,6.27
2019-05-06T22:20:07.281Z,5.77
2019-05-06T22:22:37.317Z,5.47
2019-05-06T22:25:06.365Z,5.43
2019-05-06T22:27:34.844Z,6.27
2019-05-06T22:30:05.261Z,5.37
2019-05-06T22:32:35.448Z,6.13
2019-05-06T22:35:04.702Z,5.83
2019-05-06T22:37:33.350Z,5.63
2019-05-06T22:40:02.300Z,5.33
2019-05-06T22:42:32.242Z,6.30
2019-05-06T22:45:01.942Z,6.03
2019-05-06T22:47:32.500Z,5.60
2019-05-06T22:50:02.220Z,5.63
2019-05-06T22:52:32.532Z,5.53
2019-05-06T22:55:03.726Z,5.03
2019-05-06T22:57:32.997Z,5.07
2019-05-06T23:00:03.391Z,5.70
2019-05-06T23:02:33.034Z,6.07
2019-05-06T23:05:04.430Z,5.57
2019-05-06T23:07:34.113Z,5.20
2019-05-06T23:10:03.068Z,5.20
2019-05-06T23:12:32.550Z,5.10
2019-05-06T23:15:02.670Z,5.40
2019-05-06T23:17:34.259Z,4.80
2019-05-06T23:20:04.712Z,4.73
2019-05-06T23:22:33.130Z,5.07
2019-05-06T23:25:02.333Z,5.47
2019-05-06T23:27:30.890Z,5.03
2019-05-06T23:29:59.367Z,5.13
2019-05-06T23:32:27.909Z,5.00
2019-05-06T23:34:56.399Z,5.57
2019-05-06T23:37:23.912Z,4.97
2019-05-06T23:40:32.923Z,5.37
2019-05-06T23:43:37.373Z,5.27
2019-05-06T23:46:42.630Z,4.80
2019-05-06T23:49:47.774Z,4.63
2019-05-06T23:52:53.089Z,4.47
2019-05-06T23:55:58.157Z,5.03
2019-05-06T23:58:25.749Z,4.23
